Greenwich, Connecticut
Current Conditions -  °F | °C
As of 1:56 PM on Sunday 21 Dec 2014 (Local Time) from KHPN Reporting Station
Light Snow Light Snow  
Wind Chill: 26°   Ceiling: 800
Heat Index: 33°   Visibility: 3mi
Dew Point: 30°   Wind: 8mph
Humidity: 89%   Direction: 330°NNW
Pressure: 30.26"   Gusts: NA
Location:  41.03°N, 73.63°W
Report Text: KHPN 211856Z 33007KT 3SM -SN BR BKN008 OVC014 01/M01 A3026 RMK AO2 CIG 006V010 SLP254 P0000 T00061011
Loading
Personal Weather Stations






























Interactive Weather Map New forecast layout! Learn more

10-Day Weather Forecast

Advertisements
Track Severe Weather on mobile